Terminal Aerodrome Forecast
Issued by NWS

Home | Current Version | Previous Version | Text Only | Print | Product List | Glossary On
Versions: 1 2 3 4 5 6 7 8 9 10 11 12 13 14 15 16 17 18 19 20 21 22
461
FTUS46 KHNX 041120
TAFVIS
TAF
KVIS 041120Z 0412/0512 00000KT 5SM BR SKC
      TEMPO 0412/0416 3SM BR
     FM041800 31003KT 6SM HZ SKC
     FM050600 VRB02KT 2SM BR SCT250=

USA.gov is the U.S. government's official web portal to all federal, state and local government web resources and services.